sensor_id;sensor_type;location;lat;lon;timestamp;temperature;humidity
14873;DHT22;7528;48.576;19.122;2022-08-21T00:03:17;23.60;85.80
14873;DHT22;7528;48.576;19.122;2022-08-21T00:08:20;23.60;85.60
14873;DHT22;7528;48.576;19.122;2022-08-21T00:13:24;23.60;85.90
14873;DHT22;7528;48.576;19.122;2022-08-21T00:18:29;23.60;85.90
14873;DHT22;7528;48.576;19.122;2022-08-21T00:23:33;23.60;85.70
14873;DHT22;7528;48.576;19.122;2022-08-21T00:28:37;23.50;85.80
14873;DHT22;7528;48.576;19.122;2022-08-21T00:33:42;23.60;85.60
14873;DHT22;7528;48.576;19.122;2022-08-21T00:38:45;23.50;85.90
14873;DHT22;7528;48.576;19.122;2022-08-21T00:43:48;23.50;85.70
14873;DHT22;7528;48.576;19.122;2022-08-21T00:48:54;23.40;85.90
14873;DHT22;7528;48.576;19.122;2022-08-21T00:53:59;23.50;85.70
14873;DHT22;7528;48.576;19.122;2022-08-21T00:59:04;23.40;85.60
14873;DHT22;7528;48.576;19.122;2022-08-21T01:04:09;23.40;85.60
14873;DHT22;7528;48.576;19.122;2022-08-21T01:09:14;23.40;85.50
14873;DHT22;7528;48.576;19.122;2022-08-21T01:14:17;23.40;85.40
14873;DHT22;7528;48.576;19.122;2022-08-21T01:19:24;23.30;85.50
14873;DHT22;7528;48.576;19.122;2022-08-21T01:24:29;23.20;85.80
14873;DHT22;7528;48.576;19.122;2022-08-21T01:29:38;23.20;85.70
14873;DHT22;7528;48.576;19.122;2022-08-21T01:34:43;23.20;86.20
14873;DHT22;7528;48.576;19.122;2022-08-21T01:39:48;23.20;86.20
14873;DHT22;7528;48.576;19.122;2022-08-21T01:44:51;23.20;86.20
14873;DHT22;7528;48.576;19.122;2022-08-21T01:49:55;23.10;86.10
14873;DHT22;7528;48.576;19.122;2022-08-21T01:54:59;23.10;86.10
14873;DHT22;7528;48.576;19.122;2022-08-21T02:00:04;23.10;86.40
14873;DHT22;7528;48.576;19.122;2022-08-21T02:05:13;23.00;86.50
14873;DHT22;7528;48.576;19.122;2022-08-21T02:10:21;23.00;86.60
14873;DHT22;7528;48.576;19.122;2022-08-21T02:15:25;23.00;86.60
14873;DHT22;7528;48.576;19.122;2022-08-21T02:20:32;22.90;86.90
14873;DHT22;7528;48.576;19.122;2022-08-21T02:25:38;22.90;87.20
14873;DHT22;7528;48.576;19.122;2022-08-21T02:30:44;23.00;87.50
14873;DHT22;7528;48.576;19.122;2022-08-21T02:35:50;22.90;87.50
14873;DHT22;7528;48.576;19.122;2022-08-21T02:40:55;22.90;87.60
14873;DHT22;7528;48.576;19.122;2022-08-21T02:45:59;22.90;87.70
14873;DHT22;7528;48.576;19.122;2022-08-21T02:51:05;22.90;87.50
14873;DHT22;7528;48.576;19.122;2022-08-21T02:56:12;23.00;87.00
14873;DHT22;7528;48.576;19.122;2022-08-21T03:01:15;23.00;87.00
14873;DHT22;7528;48.576;19.122;2022-08-21T03:06:20;22.90;87.10
14873;DHT22;7528;48.576;19.122;2022-08-21T03:11:25;22.90;87.20
14873;DHT22;7528;48.576;19.122;2022-08-21T03:16:28;22.90;87.40
14873;DHT22;7528;48.576;19.122;2022-08-21T03:21:31;22.80;87.50
14873;DHT22;7528;48.576;19.122;2022-08-21T03:26:36;22.80;88.00
14873;DHT22;7528;48.576;19.122;2022-08-21T03:31:39;22.80;87.90
14873;DHT22;7528;48.576;19.122;2022-08-21T03:36:43;22.70;88.10
14873;DHT22;7528;48.576;19.122;2022-08-21T03:41:47;22.80;88.30
14873;DHT22;7528;48.576;19.122;2022-08-21T03:46:50;22.70;88.70
14873;DHT22;7528;48.576;19.122;2022-08-21T03:51:54;22.70;88.60
14873;DHT22;7528;48.576;19.122;2022-08-21T03:56:59;22.70;88.70
14873;DHT22;7528;48.576;19.122;2022-08-21T04:02:04;22.70;88.70
14873;DHT22;7528;48.576;19.122;2022-08-21T04:07:07;22.60;88.50
14873;DHT22;7528;48.576;19.122;2022-08-21T04:12:12;22.60;89.00
14873;DHT22;7528;48.576;19.122;2022-08-21T04:17:15;22.60;89.00
14873;DHT22;7528;48.576;19.122;2022-08-21T04:22:18;22.60;88.70
14873;DHT22;7528;48.576;19.122;2022-08-21T04:27:24;22.60;88.60
14873;DHT22;7528;48.576;19.122;2022-08-21T04:32:27;22.60;88.60
14873;DHT22;7528;48.576;19.122;2022-08-21T04:37:30;22.70;88.60
14873;DHT22;7528;48.576;19.122;2022-08-21T04:42:41;22.60;89.00
14873;DHT22;7528;48.576;19.122;2022-08-21T04:47:46;22.70;89.20
14873;DHT22;7528;48.576;19.122;2022-08-21T04:52:49;22.80;88.80
14873;DHT22;7528;48.576;19.122;2022-08-21T04:57:54;22.70;89.00
14873;DHT22;7528;48.576;19.122;2022-08-21T05:02:58;22.70;89.20
14873;DHT22;7528;48.576;19.122;2022-08-21T05:08:03;22.70;88.90
14873;DHT22;7528;48.576;19.122;2022-08-21T05:13:09;22.70;88.50
14873;DHT22;7528;48.576;19.122;2022-08-21T05:18:12;22.70;88.70
14873;DHT22;7528;48.576;19.122;2022-08-21T05:23:16;22.80;88.50
14873;DHT22;7528;48.576;19.122;2022-08-21T05:28:20;22.80;88.40
14873;DHT22;7528;48.576;19.122;2022-08-21T05:33:24;22.90;88.50
14873;DHT22;7528;48.576;19.122;2022-08-21T05:38:27;22.90;88.40
14873;DHT22;7528;48.576;19.122;2022-08-21T05:43:32;22.90;88.70
14873;DHT22;7528;48.576;19.122;2022-08-21T05:48:37;23.00;88.30
14873;DHT22;7528;48.576;19.122;2022-08-21T05:53:41;23.00;88.20
14873;DHT22;7528;48.576;19.122;2022-08-21T05:58:46;23.10;88.20
14873;DHT22;7528;48.576;19.122;2022-08-21T06:03:49;23.20;87.90
14873;DHT22;7528;48.576;19.122;2022-08-21T06:08:52;23.20;87.10
14873;DHT22;7528;48.576;19.122;2022-08-21T06:13:57;23.20;86.80
14873;DHT22;7528;48.576;19.122;2022-08-21T06:19:01;23.20;87.10
14873;DHT22;7528;48.576;19.122;2022-08-21T06:24:04;23.20;87.50
14873;DHT22;7528;48.576;19.122;2022-08-21T06:29:09;23.20;87.30
14873;DHT22;7528;48.576;19.122;2022-08-21T06:34:15;23.20;87.60
14873;DHT22;7528;48.576;19.122;2022-08-21T06:39:18;23.30;87.00
14873;DHT22;7528;48.576;19.122;2022-08-21T06:44:23;23.30;86.80
14873;DHT22;7528;48.576;19.122;2022-08-21T06:49:26;23.30;86.20
14873;DHT22;7528;48.576;19.122;2022-08-21T06:54:29;23.40;86.80
14873;DHT22;7528;48.576;19.122;2022-08-21T06:59:34;23.50;86.90
14873;DHT22;7528;48.576;19.122;2022-08-21T07:04:37;23.50;87.00
14873;DHT22;7528;48.576;19.122;2022-08-21T07:09:40;23.60;85.50
14873;DHT22;7528;48.576;19.122;2022-08-21T07:14:45;23.60;85.80
14873;DHT22;7528;48.576;19.122;2022-08-21T07:19:48;23.60;86.60
14873;DHT22;7528;48.576;19.122;2022-08-21T07:24:53;23.70;87.40
14873;DHT22;7528;48.576;19.122;2022-08-21T07:29:57;23.80;87.30
14873;DHT22;7528;48.576;19.122;2022-08-21T07:35:00;23.60;88.50
14873;DHT22;7528;48.576;19.122;2022-08-21T07:40:04;23.60;88.70
14873;DHT22;7528;48.576;19.122;2022-08-21T07:45:10;23.60;88.90
14873;DHT22;7528;48.576;19.122;2022-08-21T07:50:14;23.60;89.80
14873;DHT22;7528;48.576;19.122;2022-08-21T07:55:19;23.60;89.70
14873;DHT22;7528;48.576;19.122;2022-08-21T08:00:27;23.70;89.00
14873;DHT22;7528;48.576;19.122;2022-08-21T08:05:31;23.80;89.50
14873;DHT22;7528;48.576;19.122;2022-08-21T08:10:35;24.00;89.30
14873;DHT22;7528;48.576;19.122;2022-08-21T08:15:39;24.10;88.90
14873;DHT22;7528;48.576;19.122;2022-08-21T08:20:42;24.10;88.40
14873;DHT22;7528;48.576;19.122;2022-08-21T08:25:46;24.20;88.40
14873;DHT22;7528;48.576;19.122;2022-08-21T08:30:51;24.20;89.20
14873;DHT22;7528;48.576;19.122;2022-08-21T08:35:54;24.30;89.90
14873;DHT22;7528;48.576;19.122;2022-08-21T08:41:02;24.40;89.40
14873;DHT22;7528;48.576;19.122;2022-08-21T08:46:16;24.50;87.60
14873;DHT22;7528;48.576;19.122;2022-08-21T08:51:24;24.50;86.50
14873;DHT22;7528;48.576;19.122;2022-08-21T08:56:30;24.60;87.60
14873;DHT22;7528;48.576;19.122;2022-08-21T09:01:35;24.60;87.60
14873;DHT22;7528;48.576;19.122;2022-08-21T09:06:51;24.70;87.90
14873;DHT22;7528;48.576;19.122;2022-08-21T09:12:00;24.80;86.50
14873;DHT22;7528;48.576;19.122;2022-08-21T09:17:15;24.80;87.20
14873;DHT22;7528;48.576;19.122;2022-08-21T09:22:28;24.90;86.40
14873;DHT22;7528;48.576;19.122;2022-08-21T09:27:33;25.00;86.90
14873;DHT22;7528;48.576;19.122;2022-08-21T09:32:39;25.10;86.60
14873;DHT22;7528;48.576;19.122;2022-08-21T09:37:53;25.20;85.30
14873;DHT22;7528;48.576;19.122;2022-08-21T09:42:59;25.40;84.80
14873;DHT22;7528;48.576;19.122;2022-08-21T09:48:11;25.60;84.30
14873;DHT22;7528;48.576;19.122;2022-08-21T09:53:19;25.60;83.10
14873;DHT22;7528;48.576;19.122;2022-08-21T09:58:31;25.70;83.60
14873;DHT22;7528;48.576;19.122;2022-08-21T10:03:36;25.70;84.30
14873;DHT22;7528;48.576;19.122;2022-08-21T10:08:40;25.80;83.00
14873;DHT22;7528;48.576;19.122;2022-08-21T10:13:51;25.90;83.40
14873;DHT22;7528;48.576;19.122;2022-08-21T10:19:14;26.00;80.60
14873;DHT22;7528;48.576;19.122;2022-08-21T10:24:23;26.00;81.70
14873;DHT22;7528;48.576;19.122;2022-08-21T10:29:42;26.10;80.90
14873;DHT22;7528;48.576;19.122;2022-08-21T10:34:55;26.20;80.40
14873;DHT22;7528;48.576;19.122;2022-08-21T10:40:12;26.20;78.80
14873;DHT22;7528;48.576;19.122;2022-08-21T10:45:30;26.20;80.90
14873;DHT22;7528;48.576;19.122;2022-08-21T10:50:41;26.20;78.90
14873;DHT22;7528;48.576;19.122;2022-08-21T10:55:52;26.20;80.00
14873;DHT22;7528;48.576;19.122;2022-08-21T11:01:03;26.30;82.20
14873;DHT22;7528;48.576;19.122;2022-08-21T11:06:16;26.40;82.10
14873;DHT22;7528;48.576;19.122;2022-08-21T11:11:24;26.40;82.20
14873;DHT22;7528;48.576;19.122;2022-08-21T11:16:36;26.40;83.10
14873;DHT22;7528;48.576;19.122;2022-08-21T11:21:45;26.50;83.60
14873;DHT22;7528;48.576;19.122;2022-08-21T11:26:56;26.50;82.30
14873;DHT22;7528;48.576;19.122;2022-08-21T11:32:22;26.40;82.70
14873;DHT22;7528;48.576;19.122;2022-08-21T11:37:45;26.50;83.60
14873;DHT22;7528;48.576;19.122;2022-08-21T11:42:59;26.50;85.00
14873;DHT22;7528;48.576;19.122;2022-08-21T11:48:13;26.50;84.80
14873;DHT22;7528;48.576;19.122;2022-08-21T11:53:25;26.60;83.90
14873;DHT22;7528;48.576;19.122;2022-08-21T11:58:38;26.70;83.70
14873;DHT22;7528;48.576;19.122;2022-08-21T12:03:52;26.70;84.40
14873;DHT22;7528;48.576;19.122;2022-08-21T12:09:00;26.60;84.30
14873;DHT22;7528;48.576;19.122;2022-08-21T12:14:13;26.60;83.40
14873;DHT22;7528;48.576;19.122;2022-08-21T12:19:29;26.60;82.00
14873;DHT22;7528;48.576;19.122;2022-08-21T12:24:37;26.70;82.00
14873;DHT22;7528;48.576;19.122;2022-08-21T12:29:47;26.80;83.00
14873;DHT22;7528;48.576;19.122;2022-08-21T12:34:53;26.90;81.70
14873;DHT22;7528;48.576;19.122;2022-08-21T12:40:00;26.90;81.50
14873;DHT22;7528;48.576;19.122;2022-08-21T12:45:13;27.00;79.60
14873;DHT22;7528;48.576;19.122;2022-08-21T12:50:21;27.30;79.20
14873;DHT22;7528;48.576;19.122;2022-08-21T12:55:32;27.50;80.90
14873;DHT22;7528;48.576;19.122;2022-08-21T13:00:35;27.60;80.00
14873;DHT22;7528;48.576;19.122;2022-08-21T13:05:40;27.70;78.20
14873;DHT22;7528;48.576;19.122;2022-08-21T13:10:46;27.70;76.90
14873;DHT22;7528;48.576;19.122;2022-08-21T13:15:57;27.70;77.60
14873;DHT22;7528;48.576;19.122;2022-08-21T13:21:05;27.60;76.60
14873;DHT22;7528;48.576;19.122;2022-08-21T13:26:14;27.40;77.40
14873;DHT22;7528;48.576;19.122;2022-08-21T13:31:27;27.20;76.50
14873;DHT22;7528;48.576;19.122;2022-08-21T13:36:35;27.20;77.00
14873;DHT22;7528;48.576;19.122;2022-08-21T13:41:43;27.10;76.60
14873;DHT22;7528;48.576;19.122;2022-08-21T13:46:47;27.10;76.70
14873;DHT22;7528;48.576;19.122;2022-08-21T13:51:50;27.20;77.60
14873;DHT22;7528;48.576;19.122;2022-08-21T13:56:55;27.30;75.80
14873;DHT22;7528;48.576;19.122;2022-08-21T14:02:00;27.30;73.30
14873;DHT22;7528;48.576;19.122;2022-08-21T14:07:15;27.20;75.40
14873;DHT22;7528;48.576;19.122;2022-08-21T14:12:28;27.20;76.70
14873;DHT22;7528;48.576;19.122;2022-08-21T14:17:35;27.20;76.70
14873;DHT22;7528;48.576;19.122;2022-08-21T14:22:40;27.30;78.80
14873;DHT22;7528;48.576;19.122;2022-08-21T14:27:51;27.20;79.20
14873;DHT22;7528;48.576;19.122;2022-08-21T14:32:55;27.10;78.00
14873;DHT22;7528;48.576;19.122;2022-08-21T14:37:58;27.00;78.80
14873;DHT22;7528;48.576;19.122;2022-08-21T14:43:03;27.00;79.60
14873;DHT22;7528;48.576;19.122;2022-08-21T14:48:08;27.00;79.70
14873;DHT22;7528;48.576;19.122;2022-08-21T14:53:11;27.00;79.90
14873;DHT22;7528;48.576;19.122;2022-08-21T14:58:15;27.00;78.60
14873;DHT22;7528;48.576;19.122;2022-08-21T15:03:19;27.10;75.80
14873;DHT22;7528;48.576;19.122;2022-08-21T15:08:23;27.10;77.30
14873;DHT22;7528;48.576;19.122;2022-08-21T15:13:28;27.00;78.50
14873;DHT22;7528;48.576;19.122;2022-08-21T15:18:32;26.90;76.50
14873;DHT22;7528;48.576;19.122;2022-08-21T15:23:35;26.90;76.20
14873;DHT22;7528;48.576;19.122;2022-08-21T15:28:40;26.90;80.50
14873;DHT22;7528;48.576;19.122;2022-08-21T15:33:43;26.90;80.80
14873;DHT22;7528;48.576;19.122;2022-08-21T15:38:46;26.80;80.10
14873;DHT22;7528;48.576;19.122;2022-08-21T15:43:53;26.80;80.50
14873;DHT22;7528;48.576;19.122;2022-08-21T15:48:56;26.70;80.50
14873;DHT22;7528;48.576;19.122;2022-08-21T15:53:59;26.60;80.60
14873;DHT22;7528;48.576;19.122;2022-08-21T15:59:06;26.60;80.90
14873;DHT22;7528;48.576;19.122;2022-08-21T16:04:10;26.50;82.00
14873;DHT22;7528;48.576;19.122;2022-08-21T16:09:15;26.50;82.50
14873;DHT22;7528;48.576;19.122;2022-08-21T16:14:19;26.40;82.70
14873;DHT22;7528;48.576;19.122;2022-08-21T16:19:23;26.30;82.00
14873;DHT22;7528;48.576;19.122;2022-08-21T16:24:26;26.20;82.50
14873;DHT22;7528;48.576;19.122;2022-08-21T16:29:33;26.10;82.70
14873;DHT22;7528;48.576;19.122;2022-08-21T16:34:37;26.10;82.90
14873;DHT22;7528;48.576;19.122;2022-08-21T16:39:42;26.00;83.10
14873;DHT22;7528;48.576;19.122;2022-08-21T16:44:48;26.00;83.80
14873;DHT22;7528;48.576;19.122;2022-08-21T16:49:51;26.00;83.90
14873;DHT22;7528;48.576;19.122;2022-08-21T16:54:54;25.90;83.80
14873;DHT22;7528;48.576;19.122;2022-08-21T17:00:00;25.80;83.30
14873;DHT22;7528;48.576;19.122;2022-08-21T17:05:06;25.70;82.50
14873;DHT22;7528;48.576;19.122;2022-08-21T17:10:13;25.60;81.50
14873;DHT22;7528;48.576;19.122;2022-08-21T17:15:20;25.60;82.20
14873;DHT22;7528;48.576;19.122;2022-08-21T17:20:23;25.60;82.50
14873;DHT22;7528;48.576;19.122;2022-08-21T17:25:27;25.50;82.80
14873;DHT22;7528;48.576;19.122;2022-08-21T17:30:32;25.30;84.40
14873;DHT22;7528;48.576;19.122;2022-08-21T17:35:35;25.20;84.30
14873;DHT22;7528;48.576;19.122;2022-08-21T17:40:38;25.20;84.30
14873;DHT22;7528;48.576;19.122;2022-08-21T17:45:44;25.20;84.60
14873;DHT22;7528;48.576;19.122;2022-08-21T17:50:47;25.10;84.40
14873;DHT22;7528;48.576;19.122;2022-08-21T17:55:50;25.10;84.40
14873;DHT22;7528;48.576;19.122;2022-08-21T18:00:54;25.00;83.60
14873;DHT22;7528;48.576;19.122;2022-08-21T18:05:58;25.00;82.60
14873;DHT22;7528;48.576;19.122;2022-08-21T18:11:01;24.90;82.20
14873;DHT22;7528;48.576;19.122;2022-08-21T18:16:06;24.90;82.30
14873;DHT22;7528;48.576;19.122;2022-08-21T18:21:11;24.70;82.50
14873;DHT22;7528;48.576;19.122;2022-08-21T18:26:17;24.70;82.90
14873;DHT22;7528;48.576;19.122;2022-08-21T18:31:24;24.60;83.30
14873;DHT22;7528;48.576;19.122;2022-08-21T18:36:28;24.60;83.70
14873;DHT22;7528;48.576;19.122;2022-08-21T18:41:31;24.60;83.60
14873;DHT22;7528;48.576;19.122;2022-08-21T18:46:35;24.50;83.60
14873;DHT22;7528;48.576;19.122;2022-08-21T18:51:38;24.50;83.70
14873;DHT22;7528;48.576;19.122;2022-08-21T18:56:41;24.50;83.40
14873;DHT22;7528;48.576;19.122;2022-08-21T19:01:46;24.40;84.30
14873;DHT22;7528;48.576;19.122;2022-08-21T19:06:51;24.30;84.00
14873;DHT22;7528;48.576;19.122;2022-08-21T19:11:54;24.30;84.60
14873;DHT22;7528;48.576;19.122;2022-08-21T19:16:59;24.30;84.50
14873;DHT22;7528;48.576;19.122;2022-08-21T19:22:02;24.30;84.80
14873;DHT22;7528;48.576;19.122;2022-08-21T19:27:05;24.30;84.40
14873;DHT22;7528;48.576;19.122;2022-08-21T19:32:10;24.20;83.90
14873;DHT22;7528;48.576;19.122;2022-08-21T19:37:14;24.20;84.00
14873;DHT22;7528;48.576;19.122;2022-08-21T19:42:17;24.20;83.50
14873;DHT22;7528;48.576;19.122;2022-08-21T19:47:24;24.10;83.60
14873;DHT22;7528;48.576;19.122;2022-08-21T19:52:29;24.10;84.00
14873;DHT22;7528;48.576;19.122;2022-08-21T19:57:33;24.10;84.50
14873;DHT22;7528;48.576;19.122;2022-08-21T20:02:38;24.00;84.60
14873;DHT22;7528;48.576;19.122;2022-08-21T20:07:43;24.00;84.30
14873;DHT22;7528;48.576;19.122;2022-08-21T20:12:48;23.90;84.50
14873;DHT22;7528;48.576;19.122;2022-08-21T20:17:53;24.00;84.70
14873;DHT22;7528;48.576;19.122;2022-08-21T20:22:57;23.90;84.60
14873;DHT22;7528;48.576;19.122;2022-08-21T20:28:00;23.80;84.90
14873;DHT22;7528;48.576;19.122;2022-08-21T20:33:05;23.80;84.70
14873;DHT22;7528;48.576;19.122;2022-08-21T20:38:08;23.80;85.50
14873;DHT22;7528;48.576;19.122;2022-08-21T20:43:12;23.80;84.50
14873;DHT22;7528;48.576;19.122;2022-08-21T20:48:21;23.80;83.60
14873;DHT22;7528;48.576;19.122;2022-08-21T20:53:33;23.70;83.20
14873;DHT22;7528;48.576;19.122;2022-08-21T20:58:41;23.70;83.20
14873;DHT22;7528;48.576;19.122;2022-08-21T21:03:53;23.60;83.30
14873;DHT22;7528;48.576;19.122;2022-08-21T21:09:03;23.70;83.00
14873;DHT22;7528;48.576;19.122;2022-08-21T21:14:12;23.60;81.70
14873;DHT22;7528;48.576;19.122;2022-08-21T21:19:24;23.60;81.80
14873;DHT22;7528;48.576;19.122;2022-08-21T21:24:36;23.50;82.60
14873;DHT22;7528;48.576;19.122;2022-08-21T21:29:42;23.60;83.50
14873;DHT22;7528;48.576;19.122;2022-08-21T21:34:48;23.60;80.90
14873;DHT22;7528;48.576;19.122;2022-08-21T21:39:56;23.60;81.60
14873;DHT22;7528;48.576;19.122;2022-08-21T21:45:11;23.50;82.60
14873;DHT22;7528;48.576;19.122;2022-08-21T21:50:25;23.50;80.90
14873;DHT22;7528;48.576;19.122;2022-08-21T21:55:47;23.50;78.80
14873;DHT22;7528;48.576;19.122;2022-08-21T22:01:01;23.40;79.00
14873;DHT22;7528;48.576;19.122;2022-08-21T22:06:10;23.40;78.40
14873;DHT22;7528;48.576;19.122;2022-08-21T22:11:19;23.30;78.20
14873;DHT22;7528;48.576;19.122;2022-08-21T22:16:23;23.30;78.00
14873;DHT22;7528;48.576;19.122;2022-08-21T22:21:30;23.30;77.90
14873;DHT22;7528;48.576;19.122;2022-08-21T22:26:37;23.20;78.70
14873;DHT22;7528;48.576;19.122;2022-08-21T22:31:41;23.10;78.20
14873;DHT22;7528;48.576;19.122;2022-08-21T22:36:55;23.00;78.70
14873;DHT22;7528;48.576;19.122;2022-08-21T22:42:06;23.10;79.30
14873;DHT22;7528;48.576;19.122;2022-08-21T22:47:16;23.10;79.30
14873;DHT22;7528;48.576;19.122;2022-08-21T22:52:25;23.10;79.10
14873;DHT22;7528;48.576;19.122;2022-08-21T22:57:30;23.10;77.90
14873;DHT22;7528;48.576;19.122;2022-08-21T23:02:39;23.00;78.50
14873;DHT22;7528;48.576;19.122;2022-08-21T23:07:47;22.80;80.40
14873;DHT22;7528;48.576;19.122;2022-08-21T23:12:53;22.80;81.40
14873;DHT22;7528;48.576;19.122;2022-08-21T23:18:01;22.90;82.00
14873;DHT22;7528;48.576;19.122;2022-08-21T23:23:11;22.90;81.50
14873;DHT22;7528;48.576;19.122;2022-08-21T23:28:25;22.90;80.60
14873;DHT22;7528;48.576;19.122;2022-08-21T23:33:42;22.90;82.10
14873;DHT22;7528;48.576;19.122;2022-08-21T23:39:05;23.00;82.40
14873;DHT22;7528;48.576;19.122;2022-08-21T23:44:21;22.80;80.50
14873;DHT22;7528;48.576;19.122;2022-08-21T23:49:45;22.80;81.70
14873;DHT22;7528;48.576;19.122;2022-08-21T23:55:01;22.80;82.90
